sensor_id;sensor_type;location;lat;lon;timestamp;P1;durP1;ratioP1;P2;durP2;ratioP2
78290;SDS011;67543;45.494;9.100;2023-04-25T06:35:12;1.90;;;1.20;;
78290;SDS011;67543;45.494;9.100;2023-04-25T06:37:41;3.63;;;1.30;;
78290;SDS011;67543;45.494;9.100;2023-04-25T06:40:09;1.98;;;1.25;;
78290;SDS011;67543;45.494;9.100;2023-04-25T06:42:42;3.25;;;1.42;;
78290;SDS011;67543;45.494;9.100;2023-04-25T06:45:14;2.50;;;1.40;;
78290;SDS011;67543;45.494;9.100;2023-04-25T06:47:44;3.30;;;1.08;;
78290;SDS011;67543;45.494;9.100;2023-04-25T06:50:10;1.83;;;1.08;;
78290;SDS011;67543;45.494;9.100;2023-04-25T06:52:36;2.40;;;0.98;;
78290;SDS011;67543;45.494;9.100;2023-04-25T06:55:01;2.47;;;1.27;;
78290;SDS011;67543;45.494;9.100;2023-04-25T06:57:28;4.70;;;1.38;;
78290;SDS011;67543;45.494;9.100;2023-04-25T06:59:56;3.20;;;1.60;;
78290;SDS011;67543;45.494;9.100;2023-04-25T07:02:25;1.27;;;1.10;;
78290;SDS011;67543;45.494;9.100;2023-04-25T07:04:50;2.40;;;1.23;;
78290;SDS011;67543;45.494;9.100;2023-04-25T07:07:15;3.20;;;1.10;;
78290;SDS011;67543;45.494;9.100;2023-04-25T07:09:42;3.33;;;1.30;;
78290;SDS011;67543;45.494;9.100;2023-04-25T07:12:07;1.70;;;0.85;;
78290;SDS011;67543;45.494;9.100;2023-04-25T07:14:32;2.03;;;0.73;;
78290;SDS011;67543;45.494;9.100;2023-04-25T07:16:58;1.80;;;1.00;;
78290;SDS011;67543;45.494;9.100;2023-04-25T07:19:23;2.17;;;1.17;;
78290;SDS011;67543;45.494;9.100;2023-04-25T07:21:51;2.45;;;0.98;;
78290;SDS011;67543;45.494;9.100;2023-04-25T07:24:17;2.15;;;1.00;;
78290;SDS011;67543;45.494;9.100;2023-04-25T07:26:42;2.88;;;1.25;;
78290;SDS011;67543;45.494;9.100;2023-04-25T07:29:10;3.00;;;1.58;;
78290;SDS011;67543;45.494;9.100;2023-04-25T07:31:35;3.33;;;1.25;;
78290;SDS011;67543;45.494;9.100;2023-04-25T07:34:00;3.45;;;1.65;;
78290;SDS011;67543;45.494;9.100;2023-04-25T07:36:28;2.45;;;1.17;;
78290;SDS011;67543;45.494;9.100;2023-04-25T07:38:53;3.92;;;1.80;;
78290;SDS011;67543;45.494;9.100;2023-04-25T07:41:19;1.95;;;1.35;;
78290;SDS011;67543;45.494;9.100;2023-04-25T07:43:44;1.65;;;0.80;;
78290;SDS011;67543;45.494;9.100;2023-04-25T07:46:10;1.60;;;1.17;;
78290;SDS011;67543;45.494;9.100;2023-04-25T07:48:35;2.00;;;1.50;;
78290;SDS011;67543;45.494;9.100;2023-04-25T07:51:00;3.05;;;1.25;;
78290;SDS011;67543;45.494;9.100;2023-04-25T07:53:26;2.97;;;1.55;;
78290;SDS011;67543;45.494;9.100;2023-04-25T07:55:51;3.65;;;1.50;;
78290;SDS011;67543;45.494;9.100;2023-04-25T07:58:17;3.30;;;1.80;;
78290;SDS011;67543;45.494;9.100;2023-04-25T08:00:46;2.38;;;1.67;;
78290;SDS011;67543;45.494;9.100;2023-04-25T08:03:11;2.58;;;1.50;;
78290;SDS011;67543;45.494;9.100;2023-04-25T08:05:37;2.33;;;1.58;;
78290;SDS011;67543;45.494;9.100;2023-04-25T08:08:02;2.80;;;2.03;;
78290;SDS011;67543;45.494;9.100;2023-04-25T08:10:28;2.60;;;1.98;;
78290;SDS011;67543;45.494;9.100;2023-04-25T08:12:53;2.85;;;1.70;;
78290;SDS011;67543;45.494;9.100;2023-04-25T08:15:18;3.03;;;1.65;;
78290;SDS011;67543;45.494;9.100;2023-04-25T08:17:44;1.95;;;1.73;;
78290;SDS011;67543;45.494;9.100;2023-04-25T08:20:10;2.38;;;1.60;;
78290;SDS011;67543;45.494;9.100;2023-04-25T08:22:36;4.65;;;1.83;;
78290;SDS011;67543;45.494;9.100;2023-04-25T08:25:01;5.25;;;1.83;;
78290;SDS011;67543;45.494;9.100;2023-04-25T08:27:27;4.28;;;2.30;;
78290;SDS011;67543;45.494;9.100;2023-04-25T08:29:52;3.08;;;1.40;;
78290;SDS011;67543;45.494;9.100;2023-04-25T08:32:18;2.90;;;1.67;;
78290;SDS011;67543;45.494;9.100;2023-04-25T08:34:43;5.38;;;1.90;;
78290;SDS011;67543;45.494;9.100;2023-04-25T08:37:09;3.38;;;2.05;;
78290;SDS011;67543;45.494;9.100;2023-04-25T08:39:35;3.88;;;2.40;;
78290;SDS011;67543;45.494;9.100;2023-04-25T08:42:02;3.15;;;2.10;;
78290;SDS011;67543;45.494;9.100;2023-04-25T08:44:33;4.18;;;1.58;;
78290;SDS011;67543;45.494;9.100;2023-04-25T08:46:59;3.00;;;2.00;;
78290;SDS011;67543;45.494;9.100;2023-04-25T08:49:29;3.10;;;2.45;;
78290;SDS011;67543;45.494;9.100;2023-04-25T08:51:56;3.08;;;1.88;;
78290;SDS011;67543;45.494;9.100;2023-04-25T08:54:25;2.45;;;1.80;;
78290;SDS011;67543;45.494;9.100;2023-04-25T08:56:53;5.60;;;1.92;;
78290;SDS011;67543;45.494;9.100;2023-04-25T08:59:21;4.90;;;1.90;;
78290;SDS011;67543;45.494;9.100;2023-04-25T09:01:48;3.80;;;2.40;;
78290;SDS011;67543;45.494;9.100;2023-04-25T09:04:14;2.40;;;1.67;;
78290;SDS011;67543;45.494;9.100;2023-04-25T09:06:40;3.67;;;1.90;;
78290;SDS011;67543;45.494;9.100;2023-04-25T09:09:06;2.53;;;1.55;;
78290;SDS011;67543;45.494;9.100;2023-04-25T09:11:32;2.58;;;1.65;;
78290;SDS011;67543;45.494;9.100;2023-04-25T09:22:03;2.20;;;1.20;;
78290;SDS011;67543;45.494;9.100;2023-04-25T09:24:33;3.42;;;1.50;;
78290;SDS011;67543;45.494;9.100;2023-04-25T09:29:31;2.75;;;1.65;;
78290;SDS011;67543;45.494;9.100;2023-04-25T09:32:10;2.58;;;1.27;;
78290;SDS011;67543;45.494;9.100;2023-04-25T09:34:39;3.33;;;1.42;;
78290;SDS011;67543;45.494;9.100;2023-04-25T09:37:06;3.75;;;1.95;;
78290;SDS011;67543;45.494;9.100;2023-04-25T09:39:35;6.40;;;1.60;;
78290;SDS011;67543;45.494;9.100;2023-04-25T09:42:04;5.93;;;1.33;;
78290;SDS011;67543;45.494;9.100;2023-04-25T09:44:29;3.95;;;1.70;;
78290;SDS011;67543;45.494;9.100;2023-04-25T09:46:55;3.97;;;1.92;;
78290;SDS011;67543;45.494;9.100;2023-04-25T09:49:20;4.10;;;1.90;;
78290;SDS011;67543;45.494;9.100;2023-04-25T09:51:58;3.80;;;1.65;;
78290;SDS011;67543;45.494;9.100;2023-04-25T09:54:25;3.08;;;1.63;;
78290;SDS011;67543;45.494;9.100;2023-04-25T09:56:51;3.10;;;2.00;;
78290;SDS011;67543;45.494;9.100;2023-04-25T09:59:19;4.32;;;1.83;;
78290;SDS011;67543;45.494;9.100;2023-04-25T10:01:46;4.00;;;1.70;;
78290;SDS011;67543;45.494;9.100;2023-04-25T10:04:13;4.35;;;2.10;;
78290;SDS011;67543;45.494;9.100;2023-04-25T10:06:43;6.55;;;2.15;;
78290;SDS011;67543;45.494;9.100;2023-04-25T10:09:10;2.63;;;1.52;;
78290;SDS011;67543;45.494;9.100;2023-04-25T10:11:36;4.65;;;1.98;;
78290;SDS011;67543;45.494;9.100;2023-04-25T10:14:03;2.67;;;1.77;;
78290;SDS011;67543;45.494;9.100;2023-04-25T10:16:28;3.95;;;1.95;;
78290;SDS011;67543;45.494;9.100;2023-04-25T10:18:54;3.58;;;1.60;;
78290;SDS011;67543;45.494;9.100;2023-04-25T10:21:19;6.03;;;1.95;;
78290;SDS011;67543;45.494;9.100;2023-04-25T10:23:45;3.03;;;2.13;;
78290;SDS011;67543;45.494;9.100;2023-04-25T10:26:11;2.70;;;1.90;;
78290;SDS011;67543;45.494;9.100;2023-04-25T10:28:54;4.35;;;2.55;;
78290;SDS011;67543;45.494;9.100;2023-04-25T10:31:20;3.35;;;2.40;;
78290;SDS011;67543;45.494;9.100;2023-04-25T10:33:45;3.65;;;1.70;;
78290;SDS011;67543;45.494;9.100;2023-04-25T10:36:12;3.67;;;2.27;;
78290;SDS011;67543;45.494;9.100;2023-04-25T10:38:39;4.22;;;2.20;;
78290;SDS011;67543;45.494;9.100;2023-04-25T10:41:06;2.88;;;2.03;;
78290;SDS011;67543;45.494;9.100;2023-04-25T10:43:39;3.15;;;1.98;;
78290;SDS011;67543;45.494;9.100;2023-04-25T10:46:13;4.00;;;2.95;;
78290;SDS011;67543;45.494;9.100;2023-04-25T10:48:43;2.97;;;2.10;;
78290;SDS011;67543;45.494;9.100;2023-04-25T10:51:11;4.03;;;2.40;;
78290;SDS011;67543;45.494;9.100;2023-04-25T10:53:45;3.63;;;1.90;;
78290;SDS011;67543;45.494;9.100;2023-04-25T10:56:17;10.63;;;2.08;;
78290;SDS011;67543;45.494;9.100;2023-04-25T10:58:45;4.13;;;1.73;;
78290;SDS011;67543;45.494;9.100;2023-04-25T11:01:11;2.03;;;1.63;;
78290;SDS011;67543;45.494;9.100;2023-04-25T11:03:41;4.22;;;2.22;;
78290;SDS011;67543;45.494;9.100;2023-04-25T11:09:03;2.88;;;2.03;;
78290;SDS011;67543;45.494;9.100;2023-04-25T11:11:37;6.07;;;2.20;;
78290;SDS011;67543;45.494;9.100;2023-04-25T11:14:02;3.50;;;2.00;;
78290;SDS011;67543;45.494;9.100;2023-04-25T11:16:28;3.90;;;1.92;;
78290;SDS011;67543;45.494;9.100;2023-04-25T11:18:56;3.85;;;2.30;;
78290;SDS011;67543;45.494;9.100;2023-04-25T11:21:22;4.38;;;2.20;;
78290;SDS011;67543;45.494;9.100;2023-04-25T11:23:48;3.92;;;2.28;;
78290;SDS011;67543;45.494;9.100;2023-04-25T11:26:14;3.28;;;2.58;;
78290;SDS011;67543;45.494;9.100;2023-04-25T11:28:40;5.10;;;2.13;;
78290;SDS011;67543;45.494;9.100;2023-04-25T11:31:05;4.18;;;1.80;;
78290;SDS011;67543;45.494;9.100;2023-04-25T11:33:31;4.13;;;2.15;;
78290;SDS011;67543;45.494;9.100;2023-04-25T11:35:56;3.63;;;2.28;;
78290;SDS011;67543;45.494;9.100;2023-04-25T11:38:23;3.88;;;1.90;;
78290;SDS011;67543;45.494;9.100;2023-04-25T11:40:53;4.20;;;1.92;;
78290;SDS011;67543;45.494;9.100;2023-04-25T11:43:21;3.08;;;1.88;;
78290;SDS011;67543;45.494;9.100;2023-04-25T11:45:50;3.75;;;1.80;;
78290;SDS011;67543;45.494;9.100;2023-04-25T11:48:16;4.50;;;2.10;;
78290;SDS011;67543;45.494;9.100;2023-04-25T11:50:42;5.32;;;3.00;;
78290;SDS011;67543;45.494;9.100;2023-04-25T11:53:08;3.70;;;2.40;;
78290;SDS011;67543;45.494;9.100;2023-04-25T11:55:33;8.10;;;2.50;;
78290;SDS011;67543;45.494;9.100;2023-04-25T11:58:00;3.97;;;2.10;;
78290;SDS011;67543;45.494;9.100;2023-04-25T12:00:26;4.53;;;2.10;;
78290;SDS011;67543;45.494;9.100;2023-04-25T12:02:52;4.85;;;1.90;;
78290;SDS011;67543;45.494;9.100;2023-04-25T12:05:19;4.15;;;2.03;;
78290;SDS011;67543;45.494;9.100;2023-04-25T12:07:45;2.97;;;1.90;;
78290;SDS011;67543;45.494;9.100;2023-04-25T12:10:11;4.28;;;2.55;;
78290;SDS011;67543;45.494;9.100;2023-04-25T12:12:40;4.47;;;2.00;;
78290;SDS011;67543;45.494;9.100;2023-04-25T12:15:13;3.05;;;1.48;;
78290;SDS011;67543;45.494;9.100;2023-04-25T12:17:40;2.83;;;1.95;;
78290;SDS011;67543;45.494;9.100;2023-04-25T12:20:08;4.40;;;1.60;;
78290;SDS011;67543;45.494;9.100;2023-04-25T12:22:41;2.38;;;1.45;;
78290;SDS011;67543;45.494;9.100;2023-04-25T12:25:13;4.85;;;1.60;;
78290;SDS011;67543;45.494;9.100;2023-04-25T12:31:01;4.95;;;2.35;;
78290;SDS011;67543;45.494;9.100;2023-04-25T12:33:29;5.20;;;1.63;;
78290;SDS011;67543;45.494;9.100;2023-04-25T12:35:56;3.50;;;1.98;;
78290;SDS011;67543;45.494;9.100;2023-04-25T12:38:23;1.92;;;1.10;;
78290;SDS011;67543;45.494;9.100;2023-04-25T12:40:52;2.78;;;0.90;;
78290;SDS011;67543;45.494;9.100;2023-04-25T12:43:18;1.58;;;0.88;;
78290;SDS011;67543;45.494;9.100;2023-04-25T12:45:53;2.55;;;1.10;;
78290;SDS011;67543;45.494;9.100;2023-04-25T12:48:20;4.28;;;1.13;;
78290;SDS011;67543;45.494;9.100;2023-04-25T12:50:46;4.20;;;1.00;;
78290;SDS011;67543;45.494;9.100;2023-04-25T12:55:42;3.90;;;1.20;;
78290;SDS011;67543;45.494;9.100;2023-04-25T12:58:10;3.85;;;1.30;;
78290;SDS011;67543;45.494;9.100;2023-04-25T13:00:37;1.50;;;1.05;;
78290;SDS011;67543;45.494;9.100;2023-04-25T13:03:03;2.78;;;1.00;;
78290;SDS011;67543;45.494;9.100;2023-04-25T13:05:29;1.95;;;1.00;;
78290;SDS011;67543;45.494;9.100;2023-04-25T13:07:55;3.75;;;1.20;;
78290;SDS011;67543;45.494;9.100;2023-04-25T13:10:20;2.05;;;1.00;;
78290;SDS011;67543;45.494;9.100;2023-04-25T13:12:46;3.30;;;1.00;;
78290;SDS011;67543;45.494;9.100;2023-04-25T13:15:11;2.25;;;1.23;;
78290;SDS011;67543;45.494;9.100;2023-04-25T13:17:37;1.52;;;0.80;;
78290;SDS011;67543;45.494;9.100;2023-04-25T13:20:04;3.00;;;1.17;;
78290;SDS011;67543;45.494;9.100;2023-04-25T13:22:33;2.60;;;1.48;;
78290;SDS011;67543;45.494;9.100;2023-04-25T13:25:01;2.53;;;1.00;;
78290;SDS011;67543;45.494;9.100;2023-04-25T13:27:28;2.42;;;0.80;;
78290;SDS011;67543;45.494;9.100;2023-04-25T13:29:57;1.67;;;0.60;;
78290;SDS011;67543;45.494;9.100;2023-04-25T13:32:23;3.33;;;0.63;;
78290;SDS011;67543;45.494;9.100;2023-04-25T13:34:48;2.00;;;0.80;;
78290;SDS011;67543;45.494;9.100;2023-04-25T13:37:13;0.70;;;0.50;;
78290;SDS011;67543;45.494;9.100;2023-04-25T13:39:40;1.05;;;0.60;;
78290;SDS011;67543;45.494;9.100;2023-04-25T13:42:06;0.85;;;0.38;;
78290;SDS011;67543;45.494;9.100;2023-04-25T13:44:31;0.60;;;0.35;;
78290;SDS011;67543;45.494;9.100;2023-04-25T13:46:57;1.67;;;0.50;;
78290;SDS011;67543;45.494;9.100;2023-04-25T13:49:22;1.55;;;0.50;;
78290;SDS011;67543;45.494;9.100;2023-04-25T13:51:48;1.52;;;0.60;;
78290;SDS011;67543;45.494;9.100;2023-04-25T13:54:13;1.85;;;0.70;;
78290;SDS011;67543;45.494;9.100;2023-04-25T13:56:38;1.05;;;0.60;;
78290;SDS011;67543;45.494;9.100;2023-04-25T13:59:06;0.70;;;0.40;;
78290;SDS011;67543;45.494;9.100;2023-04-25T14:01:33;0.75;;;0.40;;
78290;SDS011;67543;45.494;9.100;2023-04-25T14:04:00;0.68;;;0.40;;
78290;SDS011;67543;45.494;9.100;2023-04-25T14:06:26;1.10;;;0.32;;
78290;SDS011;67543;45.494;9.100;2023-04-25T14:08:52;1.00;;;0.75;;
78290;SDS011;67543;45.494;9.100;2023-04-25T14:11:18;1.02;;;0.50;;
78290;SDS011;67543;45.494;9.100;2023-04-25T14:13:45;2.95;;;0.70;;
78290;SDS011;67543;45.494;9.100;2023-04-25T14:16:10;1.15;;;0.60;;
78290;SDS011;67543;45.494;9.100;2023-04-25T14:18:36;1.55;;;0.70;;
78290;SDS011;67543;45.494;9.100;2023-04-25T14:21:02;1.60;;;0.70;;
78290;SDS011;67543;45.494;9.100;2023-04-25T14:23:28;1.25;;;0.65;;
78290;SDS011;67543;45.494;9.100;2023-04-25T14:25:54;3.72;;;1.75;;
78290;SDS011;67543;45.494;9.100;2023-04-25T14:28:19;1.50;;;0.60;;
78290;SDS011;67543;45.494;9.100;2023-04-25T14:30:45;2.90;;;0.50;;
78290;SDS011;67543;45.494;9.100;2023-04-25T14:33:10;1.20;;;0.65;;
78290;SDS011;67543;45.494;9.100;2023-04-25T14:35:36;1.77;;;0.70;;
78290;SDS011;67543;45.494;9.100;2023-04-25T14:38:02;1.27;;;0.70;;
78290;SDS011;67543;45.494;9.100;2023-04-25T14:40:27;0.60;;;0.50;;
78290;SDS011;67543;45.494;9.100;2023-04-25T14:42:52;3.30;;;0.70;;
78290;SDS011;67543;45.494;9.100;2023-04-25T14:45:18;1.60;;;0.70;;
78290;SDS011;67543;45.494;9.100;2023-04-25T14:47:44;1.27;;;0.60;;
78290;SDS011;67543;45.494;9.100;2023-04-25T14:50:10;2.40;;;0.80;;
78290;SDS011;67543;45.494;9.100;2023-04-25T14:52:35;1.08;;;0.60;;
78290;SDS011;67543;45.494;9.100;2023-04-25T14:55:01;1.85;;;0.82;;
78290;SDS011;67543;45.494;9.100;2023-04-25T14:57:30;2.10;;;0.80;;
78290;SDS011;67543;45.494;9.100;2023-04-25T14:59:58;1.27;;;0.65;;
78290;SDS011;67543;45.494;9.100;2023-04-25T15:02:24;2.92;;;0.63;;
78290;SDS011;67543;45.494;9.100;2023-04-25T15:04:51;3.47;;;0.90;;
78290;SDS011;67543;45.494;9.100;2023-04-25T15:07:16;1.98;;;0.98;;
78290;SDS011;67543;45.494;9.100;2023-04-25T15:09:42;1.95;;;0.95;;
78290;SDS011;67543;45.494;9.100;2023-04-25T15:12:07;3.75;;;0.73;;
78290;SDS011;67543;45.494;9.100;2023-04-25T15:14:33;1.88;;;0.70;;
78290;SDS011;67543;45.494;9.100;2023-04-25T15:16:59;1.63;;;0.90;;
78290;SDS011;67543;45.494;9.100;2023-04-25T15:19:25;1.00;;;0.52;;
78290;SDS011;67543;45.494;9.100;2023-04-25T15:21:50;1.33;;;0.77;;
78290;SDS011;67543;45.494;9.100;2023-04-25T15:24:16;2.03;;;0.85;;
78290;SDS011;67543;45.494;9.100;2023-04-25T15:26:41;2.40;;;0.60;;
78290;SDS011;67543;45.494;9.100;2023-04-25T15:29:07;2.58;;;1.45;;
78290;SDS011;67543;45.494;9.100;2023-04-25T15:31:34;2.20;;;0.82;;
78290;SDS011;67543;45.494;9.100;2023-04-25T15:34:00;1.05;;;0.50;;
78290;SDS011;67543;45.494;9.100;2023-04-25T15:36:25;1.58;;;0.90;;
78290;SDS011;67543;45.494;9.100;2023-04-25T15:38:51;1.75;;;0.70;;
78290;SDS011;67543;45.494;9.100;2023-04-25T15:41:17;1.92;;;0.63;;
78290;SDS011;67543;45.494;9.100;2023-04-25T15:43:42;1.30;;;0.80;;
78290;SDS011;67543;45.494;9.100;2023-04-25T15:46:08;1.85;;;1.02;;
78290;SDS011;67543;45.494;9.100;2023-04-25T15:48:33;1.95;;;0.93;;
78290;SDS011;67543;45.494;9.100;2023-04-25T15:51:00;1.42;;;0.68;;
78290;SDS011;67543;45.494;9.100;2023-04-25T15:53:25;1.33;;;0.60;;
78290;SDS011;67543;45.494;9.100;2023-04-25T15:55:51;2.45;;;0.70;;
78290;SDS011;67543;45.494;9.100;2023-04-25T15:58:17;4.65;;;0.85;;
78290;SDS011;67543;45.494;9.100;2023-04-25T16:00:42;2.40;;;0.70;;
78290;SDS011;67543;45.494;9.100;2023-04-25T16:03:08;2.17;;;1.20;;
78290;SDS011;67543;45.494;9.100;2023-04-25T16:05:34;1.45;;;0.65;;
78290;SDS011;67543;45.494;9.100;2023-04-25T16:08:00;1.42;;;0.70;;
78290;SDS011;67543;45.494;9.100;2023-04-25T16:10:25;2.13;;;0.60;;
78290;SDS011;67543;45.494;9.100;2023-04-25T16:12:50;2.58;;;0.80;;
78290;SDS011;67543;45.494;9.100;2023-04-25T16:15:16;2.65;;;0.60;;
78290;SDS011;67543;45.494;9.100;2023-04-25T16:17:42;3.03;;;0.90;;
78290;SDS011;67543;45.494;9.100;2023-04-25T16:20:08;3.00;;;0.82;;
78290;SDS011;67543;45.494;9.100;2023-04-25T16:22:34;1.85;;;0.60;;
78290;SDS011;67543;45.494;9.100;2023-04-25T16:25:00;2.25;;;1.23;;
78290;SDS011;67543;45.494;9.100;2023-04-25T16:27:25;1.85;;;0.65;;
78290;SDS011;67543;45.494;9.100;2023-04-25T16:29:51;3.72;;;0.60;;
78290;SDS011;67543;45.494;9.100;2023-04-25T16:32:16;1.65;;;0.80;;
78290;SDS011;67543;45.494;9.100;2023-04-25T16:34:42;2.33;;;0.77;;
78290;SDS011;67543;45.494;9.100;2023-04-25T16:37:07;1.05;;;0.60;;
78290;SDS011;67543;45.494;9.100;2023-04-25T16:39:33;1.25;;;0.73;;
78290;SDS011;67543;45.494;9.100;2023-04-25T16:41:58;0.85;;;0.63;;
78290;SDS011;67543;45.494;9.100;2023-04-25T16:44:24;1.52;;;0.70;;
78290;SDS011;67543;45.494;9.100;2023-04-25T16:46:49;1.88;;;0.75;;
78290;SDS011;67543;45.494;9.100;2023-04-25T16:49:15;2.95;;;0.73;;
78290;SDS011;67543;45.494;9.100;2023-04-25T16:51:40;2.47;;;1.10;;
78290;SDS011;67543;45.494;9.100;2023-04-25T16:54:05;2.30;;;1.10;;
78290;SDS011;67543;45.494;9.100;2023-04-25T16:56:31;1.90;;;0.85;;
78290;SDS011;67543;45.494;9.100;2023-04-25T16:58:56;3.75;;;1.00;;
78290;SDS011;67543;45.494;9.100;2023-04-25T17:01:22;1.50;;;0.73;;
78290;SDS011;67543;45.494;9.100;2023-04-25T17:03:47;1.38;;;0.88;;
78290;SDS011;67543;45.494;9.100;2023-04-25T17:06:13;3.33;;;0.68;;
78290;SDS011;67543;45.494;9.100;2023-04-25T17:08:38;0.60;;;0.47;;
78290;SDS011;67543;45.494;9.100;2023-04-25T17:11:04;1.80;;;0.70;;
78290;SDS011;67543;45.494;9.100;2023-04-25T17:13:30;2.90;;;0.98;;
78290;SDS011;67543;45.494;9.100;2023-04-25T17:15:57;1.20;;;0.65;;
78290;SDS011;67543;45.494;9.100;2023-04-25T17:18:24;1.52;;;0.50;;
78290;SDS011;67543;45.494;9.100;2023-04-25T17:20:50;2.47;;;1.13;;
78290;SDS011;67543;45.494;9.100;2023-04-25T17:23:15;1.45;;;1.10;;
78290;SDS011;67543;45.494;9.100;2023-04-25T17:25:41;2.35;;;0.73;;
78290;SDS011;67543;45.494;9.100;2023-04-25T17:28:06;1.45;;;0.70;;
78290;SDS011;67543;45.494;9.100;2023-04-25T17:30:31;2.40;;;1.10;;
78290;SDS011;67543;45.494;9.100;2023-04-25T17:32:58;1.83;;;0.80;;
78290;SDS011;67543;45.494;9.100;2023-04-25T17:35:24;1.15;;;0.70;;
78290;SDS011;67543;45.494;9.100;2023-04-25T17:37:50;1.17;;;0.50;;
78290;SDS011;67543;45.494;9.100;2023-04-25T17:40:16;1.40;;;0.77;;
78290;SDS011;67543;45.494;9.100;2023-04-25T17:42:43;3.03;;;1.17;;
78290;SDS011;67543;45.494;9.100;2023-04-25T17:45:11;1.80;;;1.17;;
78290;SDS011;67543;45.494;9.100;2023-04-25T17:47:37;1.92;;;0.88;;
78290;SDS011;67543;45.494;9.100;2023-04-25T17:50:04;0.88;;;0.55;;
78290;SDS011;67543;45.494;9.100;2023-04-25T17:52:31;2.95;;;0.70;;
78290;SDS011;67543;45.494;9.100;2023-04-25T17:54:57;2.60;;;0.75;;
78290;SDS011;67543;45.494;9.100;2023-04-25T17:57:22;2.88;;;1.10;;
78290;SDS011;67543;45.494;9.100;2023-04-25T17:59:49;5.05;;;1.52;;
78290;SDS011;67543;45.494;9.100;2023-04-25T18:02:14;3.63;;;1.38;;
78290;SDS011;67543;45.494;9.100;2023-04-25T18:04:40;3.85;;;1.30;;
78290;SDS011;67543;45.494;9.100;2023-04-25T18:07:06;1.65;;;0.98;;
78290;SDS011;67543;45.494;9.100;2023-04-25T18:09:32;2.75;;;0.60;;
78290;SDS011;67543;45.494;9.100;2023-04-25T18:11:58;1.63;;;0.75;;
78290;SDS011;67543;45.494;9.100;2023-04-25T18:14:25;2.67;;;0.98;;
78290;SDS011;67543;45.494;9.100;2023-04-25T18:16:51;2.58;;;1.00;;
78290;SDS011;67543;45.494;9.100;2023-04-25T18:19:20;1.92;;;0.93;;
78290;SDS011;67543;45.494;9.100;2023-04-25T18:21:47;1.85;;;0.98;;
78290;SDS011;67543;45.494;9.100;2023-04-25T18:24:13;2.00;;;0.98;;
78290;SDS011;67543;45.494;9.100;2023-04-25T18:26:44;4.25;;;1.27;;
78290;SDS011;67543;45.494;9.100;2023-04-25T18:29:10;1.35;;;0.95;;
78290;SDS011;67543;45.494;9.100;2023-04-25T18:31:36;2.20;;;1.10;;
78290;SDS011;67543;45.494;9.100;2023-04-25T18:34:02;1.27;;;0.70;;
78290;SDS011;67543;45.494;9.100;2023-04-25T18:36:27;1.40;;;0.90;;
78290;SDS011;67543;45.494;9.100;2023-04-25T18:38:56;1.35;;;0.90;;
78290;SDS011;67543;45.494;9.100;2023-04-25T18:41:22;1.67;;;0.77;;
78290;SDS011;67543;45.494;9.100;2023-04-25T18:43:52;1.38;;;0.80;;
78290;SDS011;67543;45.494;9.100;2023-04-25T18:46:18;1.25;;;0.80;;
78290;SDS011;67543;45.494;9.100;2023-04-25T18:48:46;1.48;;;0.80;;
78290;SDS011;67543;45.494;9.100;2023-04-25T18:51:12;1.73;;;1.20;;
78290;SDS011;67543;45.494;9.100;2023-04-25T18:53:38;3.30;;;1.23;;
78290;SDS011;67543;45.494;9.100;2023-04-25T18:56:04;1.90;;;1.25;;
78290;SDS011;67543;45.494;9.100;2023-04-25T18:58:29;1.50;;;0.80;;
78290;SDS011;67543;45.494;9.100;2023-04-25T19:00:54;2.00;;;1.05;;
78290;SDS011;67543;45.494;9.100;2023-04-25T19:03:20;2.10;;;1.30;;
78290;SDS011;67543;45.494;9.100;2023-04-25T19:05:46;1.83;;;0.95;;
78290;SDS011;67543;45.494;9.100;2023-04-25T19:08:11;1.50;;;0.75;;
78290;SDS011;67543;45.494;9.100;2023-04-25T19:10:36;3.03;;;1.13;;
78290;SDS011;67543;45.494;9.100;2023-04-25T19:13:02;2.08;;;1.13;;
78290;SDS011;67543;45.494;9.100;2023-04-25T19:15:28;2.80;;;0.90;;
78290;SDS011;67543;45.494;9.100;2023-04-25T19:17:53;2.10;;;1.25;;
78290;SDS011;67543;45.494;9.100;2023-04-25T19:20:18;3.00;;;1.17;;
78290;SDS011;67543;45.494;9.100;2023-04-25T19:22:45;1.10;;;0.73;;
78290;SDS011;67543;45.494;9.100;2023-04-25T19:25:11;1.98;;;1.23;;
78290;SDS011;67543;45.494;9.100;2023-04-25T19:27:37;2.67;;;0.88;;
78290;SDS011;67543;45.494;9.100;2023-04-25T19:30:03;1.35;;;0.80;;
78290;SDS011;67543;45.494;9.100;2023-04-25T19:32:36;1.92;;;0.95;;
78290;SDS011;67543;45.494;9.100;2023-04-25T19:35:02;2.75;;;0.98;;
78290;SDS011;67543;45.494;9.100;2023-04-25T19:37:30;1.70;;;0.80;;
78290;SDS011;67543;45.494;9.100;2023-04-25T19:39:56;3.30;;;0.93;;
78290;SDS011;67543;45.494;9.100;2023-04-25T19:42:21;1.65;;;1.00;;
78290;SDS011;67543;45.494;9.100;2023-04-25T19:44:47;1.65;;;0.82;;
78290;SDS011;67543;45.494;9.100;2023-04-25T19:47:14;2.47;;;0.95;;
78290;SDS011;67543;45.494;9.100;2023-04-25T19:49:40;1.08;;;0.73;;
78290;SDS011;67543;45.494;9.100;2023-04-25T19:52:05;2.15;;;0.90;;
78290;SDS011;67543;45.494;9.100;2023-04-25T19:54:32;2.20;;;0.98;;
